Time;durP1;ratioP1;P1;durP2;ratioP2;P2;SDS_P1;SDS_P2;PMS_P1;PMS_P2;Temp;Humidity;BMP_temperature;BMP_pressure;BME280_temperature;BME280_humidity;BME280_pressure;Samples;Min_cycle;Max_cycle;Signal;HPM_P1;HPM_P2
2023/01/25 00:01:35;;;;;;;8.18;7.43;;;;;;;2.17;74.01;96016.25;5119073;28;20226;-75
2023/01/25 00:04:01;;;;;;;8.52;7.82;;;;;;;2.18;74.21;96015.16;5119336;28;20187;-75
2023/01/25 00:06:28;;;;;;;9.45;8.52;;;;;;;2.21;74.37;96017.31;5117649;28;20203;-76
2023/01/25 00:08:55;;;;;;;8.88;8.05;;;;;;;2.20;75.11;96021.13;5118004;28;20196;-75
2023/01/25 00:11:23;;;;;;;7.78;6.97;;;;;;;2.15;74.73;96018.44;5118264;28;20187;-75
2023/01/25 00:13:52;;;;;;;8.50;7.70;;;;;;;2.15;75.30;96015.72;5117632;28;20206;-75
2023/01/25 00:16:19;;;;;;;9.32;8.32;;;;;;;2.13;74.96;96012.44;5117779;28;20196;-75
2023/01/25 00:18:46;;;;;;;7.82;7.03;;;;;;;2.10;75.41;96013.00;5117812;28;20199;-76
2023/01/25 00:21:13;;;;;;;8.02;7.30;;;;;;;2.07;75.77;96008.94;5117724;28;20215;-76
2023/01/25 00:23:40;;;;;;;6.72;6.07;;;;;;;2.10;75.91;96019.25;5117411;28;20218;-76
2023/01/25 00:26:07;;;;;;;6.72;6.10;;;;;;;2.11;75.90;96023.63;5117546;28;20198;-75
2023/01/25 00:28:35;;;;;;;5.82;5.32;;;;;;;2.06;75.75;96020.91;5117530;28;20200;-75
2023/01/25 00:31:03;;;;;;;6.72;6.13;;;;;;;2.10;75.95;96016.53;5118046;28;20180;-76
2023/01/25 00:33:39;;;;;;;5.57;5.18;;;;;;;2.17;75.83;96016.25;5116922;28;20221;-76
2023/01/25 00:36:27;;;;;;;6.10;5.60;;;;;;;2.16;76.11;96017.34;5117026;28;20195;-75
2023/01/25 00:38:54;;;;;;;5.63;5.13;;;;;;;2.15;75.48;96011.09;5119179;28;20200;-76
2023/01/25 00:41:21;;;;;;;5.45;4.95;;;;;;;2.11;75.59;96017.38;5119633;28;20537;-76
2023/01/25 00:43:50;;;;;;;5.55;5.15;;;;;;;2.18;76.04;96020.63;5120605;28;20191;-76
2023/01/25 00:46:18;;;;;;;6.65;5.93;;;;;;;2.14;75.37;96025.78;5121769;28;20516;-75
2023/01/25 00:48:45;;;;;;;6.35;5.57;;;;;;;2.07;75.81;96011.66;5121045;28;20199;-75
2023/01/25 00:51:12;;;;;;;5.28;4.80;;;;;;;2.03;75.59;96016.00;5121237;28;20195;-75
2023/01/25 00:53:39;;;;;;;5.15;4.65;;;;;;;2.04;75.94;96016.84;5120285;28;20192;-75
2023/01/25 00:56:06;;;;;;;5.88;5.38;;;;;;;2.07;75.98;96024.44;5119676;28;20206;-75
2023/01/25 00:58:33;;;;;;;5.78;5.28;;;;;;;2.04;76.44;96022.28;5119355;28;20248;-75
2023/01/25 01:01:01;;;;;;;4.95;4.55;;;;;;;2.04;76.22;96027.72;5118109;28;20219;-76
2023/01/25 01:03:28;;;;;;;5.00;4.60;;;;;;;1.99;75.83;96017.66;5117972;28;20192;-76
2023/01/25 01:06:02;;;;;;;5.25;4.75;;;;;;;1.98;76.42;96020.66;5117971;28;20191;-76
2023/01/25 01:08:29;;;;;;;4.40;4.10;;;;;;;1.99;75.93;96011.38;5115856;28;20192;-76
2023/01/25 01:11:00;;;;;;;4.53;4.13;;;;;;;2.03;75.59;96018.72;5116687;28;20203;-76
2023/01/25 01:13:27;;;;;;;4.93;4.55;;;;;;;1.94;75.66;96020.38;5116391;28;20577;-76
2023/01/25 01:15:53;;;;;;;5.22;4.82;;;;;;;1.92;75.83;96023.41;5117563;28;20187;-76
2023/01/25 01:18:22;;;;;;;5.15;4.75;;;;;;;1.90;76.01;96017.41;5116836;28;20199;-76
2023/01/25 01:20:49;;;;;;;5.20;4.70;;;;;;;1.89;75.83;96015.78;5117218;28;20223;-76
2023/01/25 01:23:16;;;;;;;4.43;4.13;;;;;;;1.92;75.91;96012.50;5118880;28;20200;-76
2023/01/25 01:25:43;;;;;;;4.90;4.50;;;;;;;1.94;75.57;96006.78;5116881;28;20642;-75
2023/01/25 01:28:09;;;;;;;5.75;5.35;;;;;;;1.95;75.36;96004.88;5117075;28;20233;-75
2023/01/25 01:30:37;;;;;;;11.73;10.82;;;;;;;1.95;74.71;96008.41;5116676;28;20187;-75
2023/01/25 01:33:04;;;;;;;16.40;15.30;;;;;;;1.94;75.05;96001.34;5117263;28;20191;-75
2023/01/25 01:35:32;;;;;;;17.50;16.30;;;;;;;1.99;74.92;96001.31;5117487;28;20191;-75
2023/01/25 01:37:59;;;;;;;17.88;16.58;;;;;;;1.95;75.62;95999.44;5116738;28;20188;-75
2023/01/25 01:40:26;;;;;;;12.82;11.73;;;;;;;1.98;75.25;95996.97;5117480;28;20211;-76
2023/01/25 01:42:57;;;;;;;10.45;9.65;;;;;;;1.94;75.43;95995.91;5116330;28;20203;-76
2023/01/25 01:45:50;;;;;;;11.38;10.38;;;;;;;1.95;75.86;95999.44;5115776;28;20204;-76
2023/01/25 01:48:20;;;;;;;9.73;8.90;;;;;;;1.96;75.78;95996.44;5115897;28;20236;-76
2023/01/25 01:50:51;;;;;;;8.45;7.85;;;;;;;1.97;75.74;95992.63;5115852;28;20191;-76
2023/01/25 01:53:18;;;;;;;9.13;8.43;;;;;;;1.95;76.14;95996.72;5116332;28;20183;-76
2023/01/25 01:55:45;;;;;;;8.75;8.10;;;;;;;1.96;76.57;95991.00;5115179;28;20203;-76
2023/01/25 01:58:11;;;;;;;8.30;7.60;;;;;;;1.95;76.38;95991.28;5114995;28;20246;-76
2023/01/25 02:00:40;;;;;;;6.88;6.28;;;;;;;1.97;76.09;95989.91;5116174;28;20518;-76
2023/01/25 02:03:08;;;;;;;5.82;5.22;;;;;;;1.98;76.07;95999.69;5117028;28;20192;-76
2023/01/25 02:05:40;;;;;;;5.10;4.68;;;;;;;1.93;76.35;95997.81;5118352;28;20291;-76
2023/01/25 02:08:10;;;;;;;4.85;4.45;;;;;;;1.95;76.25;95996.72;5119133;28;20191;-76
2023/01/25 02:10:38;;;;;;;4.50;4.10;;;;;;;1.99;76.76;96001.31;5118177;28;20526;-75
2023/01/25 02:13:05;;;;;;;4.40;4.00;;;;;;;1.93;76.08;95997.00;5119097;28;20196;-76
2023/01/25 02:15:38;;;;;;;3.88;3.58;;;;;;;1.91;75.80;95996.44;5119887;28;20188;-76
2023/01/25 02:18:05;;;;;;;4.05;3.75;;;;;;;1.82;75.32;95998.13;5117700;28;20194;-76
2023/01/25 02:20:36;;;;;;;4.10;3.70;;;;;;;1.80;75.84;95986.69;5116998;28;20223;-76
2023/01/25 02:23:10;;;;;;;3.60;3.33;;;;;;;1.76;75.74;95994.56;5116946;28;20237;-76
2023/01/25 02:25:40;;;;;;;3.63;3.22;;;;;;;1.76;75.50;95991.03;5116845;28;20192;-76
2023/01/25 02:28:09;;;;;;;3.50;3.30;;;;;;;1.77;75.61;95995.38;5116593;28;20192;-76
2023/01/25 02:30:36;;;;;;;3.63;3.40;;;;;;;1.74;75.70;95987.75;5116244;28;20608;-76
2023/01/25 02:33:03;;;;;;;3.78;3.47;;;;;;;1.71;75.72;95991.03;5116897;28;20192;-76
2023/01/25 02:35:42;;;;;;;3.20;3.00;;;;;;;1.78;75.43;95999.72;5117933;28;20199;-76
2023/01/25 02:38:10;;;;;;;3.20;3.00;;;;;;;1.80;75.28;95994.84;5116413;28;20199;-77
2023/01/25 02:40:42;;;;;;;5.07;4.68;;;;;;;1.74;75.20;95988.56;5116719;28;20220;-77
2023/01/25 02:43:09;;;;;;;5.70;5.30;;;;;;;1.69;75.31;95980.44;5115512;28;20203;-76
2023/01/25 02:45:36;;;;;;;4.03;3.83;;;;;;;1.62;75.24;95977.19;5114822;28;20203;-76
2023/01/25 02:48:03;;;;;;;3.58;3.35;;;;;;;1.60;75.73;95982.09;5115670;28;20172;-75
2023/01/25 02:50:30;;;;;;;3.40;3.20;;;;;;;1.66;75.48;95981.78;5115531;28;20206;-76
2023/01/25 02:52:56;;;;;;;3.92;3.63;;;;;;;1.68;75.69;95984.25;5118767;28;20207;-76
2023/01/25 02:55:23;;;;;;;3.10;2.90;;;;;;;1.65;75.22;95991.03;5119817;28;20184;-76
2023/01/25 02:57:51;;;;;;;3.53;3.30;;;;;;;1.61;75.51;95987.25;5115547;28;20675;-76
2023/01/25 03:00:18;;;;;;;3.72;3.42;;;;;;;1.63;75.29;95987.81;5116952;28;20184;-76
2023/01/25 03:02:45;;;;;;;3.53;3.30;;;;;;;1.67;75.73;95990.75;5115854;28;20206;-75
2023/01/25 03:05:12;;;;;;;3.78;3.47;;;;;;;1.70;75.85;95987.50;5114983;28;20196;-75
2023/01/25 03:07:38;;;;;;;4.35;4.05;;;;;;;1.71;75.64;95986.44;5114784;28;20196;-76
2023/01/25 03:10:06;;;;;;;4.00;3.70;;;;;;;1.71;75.79;95982.88;5114356;28;20215;-75
2023/01/25 03:12:33;;;;;;;4.47;4.07;;;;;;;1.71;75.57;95982.88;5115342;28;20191;-75
2023/01/25 03:15:01;;;;;;;5.25;4.85;;;;;;;1.80;75.34;95984.75;5114157;28;20202;-75
2023/01/25 03:17:30;;;;;;;4.68;4.38;;;;;;;1.77;75.27;95989.94;5116306;28;20200;-75
2023/01/25 03:19:56;;;;;;;4.10;3.80;;;;;;;1.74;75.47;95985.84;5118121;28;20221;-75
2023/01/25 03:22:23;;;;;;;4.47;4.07;;;;;;;1.78;75.25;95981.53;5120474;28;20195;-75
2023/01/25 03:24:50;;;;;;;5.22;4.82;;;;;;;1.77;75.52;95979.88;5119427;28;20503;-75
2023/01/25 03:27:17;;;;;;;6.38;5.88;;;;;;;1.76;74.95;95982.88;5118401;28;20199;-75
2023/01/25 03:29:44;;;;;;;5.63;5.13;;;;;;;1.73;75.20;95986.16;5120095;28;20188;-75
2023/01/25 03:32:12;;;;;;;5.88;5.38;;;;;;;1.71;76.05;95989.16;5119592;28;20224;-75
2023/01/25 03:34:39;;;;;;;7.30;6.60;;;;;;;1.67;74.72;95994.31;5119738;28;20553;-75
2023/01/25 03:37:06;;;;;;;7.53;6.53;;;;;;;1.69;76.01;95986.69;5118576;28;20543;-76
2023/01/25 03:39:34;;;;;;;6.82;6.22;;;;;;;1.77;75.97;95990.75;5118304;28;20202;-76
2023/01/25 03:42:01;;;;;;;6.93;6.28;;;;;;;1.84;75.70;95985.03;5120000;28;20215;-76
2023/01/25 03:44:27;;;;;;;7.28;6.60;;;;;;;1.83;75.79;95988.84;5118617;28;20188;-76
2023/01/25 03:46:54;;;;;;;7.22;6.53;;;;;;;1.84;75.48;95983.13;5121227;28;20631;-75
2023/01/25 03:49:22;;;;;;;7.28;6.63;;;;;;;1.87;75.63;95982.56;5123697;28;20207;-76
2023/01/25 03:51:49;;;;;;;7.20;6.60;;;;;;;1.81;75.12;95982.84;5125359;28;20636;-76
2023/01/25 03:54:16;;;;;;;7.55;6.85;;;;;;;1.78;74.70;95975.25;5123774;28;20203;-76
2023/01/25 03:56:43;;;;;;;6.28;5.78;;;;;;;1.80;74.88;95971.16;5122161;28;20203;-76
2023/01/25 03:59:10;;;;;;;5.80;5.30;;;;;;;1.84;74.94;95977.69;5123708;28;20314;-76
2023/01/25 04:01:37;;;;;;;5.78;5.28;;;;;;;1.91;74.66;95975.50;5124062;28;20207;-76
2023/01/25 04:04:04;;;;;;;5.75;5.25;;;;;;;1.91;74.22;95972.78;5117837;28;20196;-75
2023/01/25 04:06:32;;;;;;;5.78;5.28;;;;;;;1.86;74.18;95966.53;5118075;27;20197;-75
2023/01/25 04:08:59;;;;;;;7.57;6.90;;;;;;;1.87;74.38;95968.97;5118019;28;20210;-75
2023/01/25 04:11:26;;;;;;;7.45;6.75;;;;;;;1.80;73.69;95967.63;5116898;28;20196;-75
2023/01/25 04:13:53;;;;;;;7.35;6.65;;;;;;;1.74;74.38;95966.81;5118050;28;20192;-75
2023/01/25 04:16:20;;;;;;;7.28;6.57;;;;;;;1.79;75.10;95966.81;5117571;28;20191;-76
2023/01/25 04:18:47;;;;;;;5.65;5.25;;;;;;;1.84;74.75;95966.81;5122509;28;20202;-76
2023/01/25 04:21:13;;;;;;;6.88;5.55;;;;;;;1.86;73.95;95970.06;5120023;28;20582;-76
2023/01/25 04:23:41;;;;;;;6.10;5.53;;;;;;;1.86;74.28;95958.38;5117938;28;20211;-75
2023/01/25 04:26:11;;;;;;;7.78;6.97;;;;;;;1.82;74.35;95966.28;5117737;27;20191;-76
2023/01/25 04:28:38;;;;;;;8.88;7.60;;;;;;;1.78;74.33;95958.91;5117777;28;20176;-76
2023/01/25 04:31:06;;;;;;;9.00;8.10;;;;;;;1.77;74.36;95960.03;5116809;28;20203;-76
2023/01/25 04:33:33;;;;;;;10.70;9.60;;;;;;;1.79;74.69;95969.53;5117792;28;20264;-76
2023/01/25 04:36:00;;;;;;;9.40;8.50;;;;;;;1.86;74.81;95970.06;5116389;28;20196;-76
2023/01/25 04:38:28;;;;;;;7.20;6.60;;;;;;;1.84;74.20;95977.69;5117443;28;20180;-76
2023/01/25 04:40:56;;;;;;;7.40;6.35;;;;;;;1.81;73.97;95978.22;5116527;28;20230;-76
2023/01/25 04:43:24;;;;;;;6.25;5.75;;;;;;;1.85;74.91;95976.63;5117116;28;20213;-76
2023/01/25 04:45:52;;;;;;;6.22;5.72;;;;;;;1.84;74.06;95980.41;5116420;28;20192;-76
2023/01/25 04:48:19;;;;;;;6.13;5.63;;;;;;;1.84;73.17;95974.16;5116223;28;20199;-76
2023/01/25 04:50:46;;;;;;;5.63;5.13;;;;;;;1.83;74.48;95984.22;5117485;28;20184;-76
2023/01/25 04:53:13;;;;;;;7.25;6.55;;;;;;;1.85;74.21;95971.19;5118836;28;20196;-77
2023/01/25 04:55:40;;;;;;;8.07;7.38;;;;;;;1.86;74.41;95977.44;5120828;28;20188;-77
2023/01/25 04:58:09;;;;;;;10.82;9.82;;;;;;;1.82;73.98;95976.34;5119838;28;20231;-77
2023/01/25 05:00:36;;;;;;;10.85;9.82;;;;;;;1.83;74.19;95972.53;5120102;28;20184;-77
2023/01/25 05:03:04;;;;;;;16.33;13.77;;;;;;;1.83;74.34;95973.34;5117831;28;20227;-77
2023/01/25 05:05:31;;;;;;;15.52;13.93;;;;;;;1.84;73.37;95971.44;5116271;28;20204;-77
2023/01/25 05:07:57;;;;;;;16.63;14.82;;;;;;;1.79;73.55;95980.44;5118169;27;20187;-77
2023/01/25 05:10:24;;;;;;;16.38;13.63;;;;;;;1.79;74.40;95974.19;5117803;28;20194;-77
2023/01/25 05:12:51;;;;;;;15.85;13.27;;;;;;;1.81;74.50;95975.50;5117734;28;20195;-77
2023/01/25 05:15:20;;;;;;;15.80;13.13;;;;;;;1.85;74.50;95967.63;5118469;28;20207;-78
2023/01/25 05:17:46;;;;;;;14.15;11.98;;;;;;;1.93;74.57;95969.78;5117746;28;20199;-77
2023/01/25 05:20:13;;;;;;;15.05;12.20;;;;;;;1.98;74.29;95969.75;5116365;28;20213;-77
2023/01/25 05:22:40;;;;;;;13.18;11.77;;;;;;;2.03;73.74;95967.03;5115901;28;20212;-77
2023/01/25 05:26:59;;;;;;;8.57;7.78;;;;;;;2.03;73.25;95960.75;5115666;28;20200;-76
2023/01/25 05:27:55;;;;;;;8.82;8.02;;;;;;;2.02;73.75;95961.88;5115754;28;20256;-76
2023/01/25 05:30:23;;;;;;;8.80;8.00;;;;;;;1.98;73.42;95968.94;5115810;28;20199;-77
2023/01/25 05:32:50;;;;;;;7.80;7.10;;;;;;;1.91;73.18;95969.25;5116803;28;20192;-77
2023/01/25 05:35:17;;;;;;;7.28;6.60;;;;;;;1.88;73.71;95969.78;5116516;28;20183;-76
2023/01/25 05:37:44;;;;;;;7.70;7.00;;;;;;;1.88;73.85;95961.63;5116462;28;20187;-76
2023/01/25 05:40:11;;;;;;;6.97;6.47;;;;;;;1.88;73.49;95972.50;5116650;28;20198;-76
2023/01/25 05:42:38;;;;;;;8.13;7.32;;;;;;;1.85;73.79;95965.72;5116392;28;20211;-76
2023/01/25 05:45:06;;;;;;;9.57;8.68;;;;;;;1.86;74.04;95963.81;5115947;28;20199;-76
2023/01/25 05:47:34;;;;;;;10.70;9.60;;;;;;;1.82;74.65;95968.19;5115574;28;20211;-76
2023/01/25 05:50:01;;;;;;;12.23;11.02;;;;;;;1.85;73.97;95973.91;5115618;28;20199;-76
2023/01/25 05:52:28;;;;;;;12.75;10.57;;;;;;;1.91;74.31;95975.50;5116176;28;20187;-75
2023/01/25 05:54:55;;;;;;;10.20;9.20;;;;;;;1.92;74.49;95977.16;5117547;28;20195;-74
2023/01/25 05:57:22;;;;;;;10.23;9.32;;;;;;;1.93;74.22;95975.22;5116669;28;20622;-74
2023/01/25 05:59:49;;;;;;;11.70;10.70;;;;;;;1.97;74.97;95976.31;5115802;28;20195;-75
2023/01/25 06:02:15;;;;;;;9.88;8.98;;;;;;;2.03;75.00;95983.34;5116138;28;20203;-75
2023/01/25 06:04:44;;;;;;;13.00;12.00;;;;;;;2.08;74.95;95980.63;5115296;28;20195;-73
2023/01/25 06:07:11;;;;;;;13.07;11.93;;;;;;;2.08;74.66;95977.91;5116187;28;20191;-75
2023/01/25 06:09:38;;;;;;;11.30;10.30;;;;;;;2.03;75.00;95974.38;5115283;28;20274;-74
2023/01/25 06:12:05;;;;;;;10.50;9.60;;;;;;;2.03;75.62;95979.81;5115071;28;20210;-75
2023/01/25 06:14:32;;;;;;;11.15;10.15;;;;;;;2.00;75.46;95986.66;5115828;28;20253;-74
2023/01/25 06:16:59;;;;;;;11.18;10.18;;;;;;;2.05;75.69;95981.19;5115056;28;20200;-74
2023/01/25 06:19:26;;;;;;;11.95;10.85;;;;;;;2.07;75.79;95986.31;5115137;28;20199;-75
2023/01/25 06:21:54;;;;;;;11.60;10.60;;;;;;;2.06;75.78;95995.59;5115266;28;20643;-74
2023/01/25 06:24:21;;;;;;;11.00;10.10;;;;;;;2.05;75.83;95991.25;5115755;28;20187;-75
2023/01/25 06:26:48;;;;;;;11.13;10.13;;;;;;;2.09;75.69;95990.41;5115438;28;20187;-75
2023/01/25 06:29:14;;;;;;;11.52;10.52;;;;;;;2.13;75.87;95986.03;5114871;28;20301;-74
2023/01/25 06:31:41;;;;;;;11.75;10.75;;;;;;;2.10;75.94;95983.88;5115029;28;20203;-74
2023/01/25 06:34:08;;;;;;;12.88;11.73;;;;;;;2.08;76.32;95982.53;5115155;28;20202;-74
2023/01/25 06:36:35;;;;;;;13.95;12.65;;;;;;;2.04;76.58;95982.28;5115407;28;20286;-74
2023/01/25 06:39:03;;;;;;;10.00;9.07;;;;;;;2.05;76.40;95981.19;5116012;28;20190;-74
2023/01/25 06:41:30;;;;;;;6.63;6.03;;;;;;;2.07;76.24;95981.72;5114845;28;20203;-74
2023/01/25 06:43:57;;;;;;;6.30;5.70;;;;;;;2.11;75.39;95985.53;5114949;28;20214;-74
2023/01/25 06:46:24;;;;;;;6.80;6.10;;;;;;;2.15;75.52;95980.34;5114833;28;20191;-74
2023/01/25 06:48:51;;;;;;;6.50;5.90;;;;;;;2.19;75.36;95983.31;5115534;28;20199;-74
2023/01/25 06:51:19;;;;;;;6.45;5.85;;;;;;;2.20;74.56;95983.03;5115174;28;20242;-74
2023/01/25 06:53:47;;;;;;;5.55;5.13;;;;;;;2.21;73.99;95978.41;5115351;28;20604;-74
2023/01/25 06:56:17;;;;;;;5.97;5.50;;;;;;;2.20;74.48;95979.50;5118024;28;20215;-74
2023/01/25 06:58:44;;;;;;;5.90;5.40;;;;;;;2.24;74.03;95977.84;5119304;28;20243;-75
2023/01/25 07:01:13;;;;;;;6.30;5.80;;;;;;;2.24;74.30;95981.38;5120524;28;20180;-74
2023/01/25 07:03:40;;;;;;;5.78;5.28;;;;;;;2.24;73.66;95984.09;5119582;28;20211;-74
2023/01/25 07:06:09;;;;;;;7.22;6.63;;;;;;;2.25;73.31;95980.31;5120473;27;20266;-75
2023/01/25 07:08:37;;;;;;;6.90;6.25;;;;;;;2.22;74.25;95983.59;5120175;28;20188;-75
2023/01/25 07:11:08;;;;;;;7.45;6.82;;;;;;;2.20;73.24;95982.22;5119948;28;20199;-75
2023/01/25 07:13:38;;;;;;;8.10;7.40;;;;;;;2.23;73.42;95978.94;5119511;28;20241;-75
2023/01/25 07:16:07;;;;;;;6.63;6.10;;;;;;;2.26;73.09;95976.50;5120723;27;20206;-74
2023/01/25 07:18:36;;;;;;;6.10;5.60;;;;;;;2.27;73.04;95975.38;5119776;28;20188;-75
2023/01/25 07:21:04;;;;;;;6.18;5.68;;;;;;;2.23;73.28;95979.75;5119806;28;20195;-75
2023/01/25 07:23:32;;;;;;;6.95;6.35;;;;;;;2.24;73.43;95984.09;5120570;28;20204;-74
2023/01/25 07:25:59;;;;;;;6.15;5.63;;;;;;;2.24;73.64;95977.84;5120632;28;20176;-75
2023/01/25 07:28:26;;;;;;;6.38;5.88;;;;;;;2.20;73.56;95991.19;5120567;28;20192;-74
2023/01/25 07:30:55;;;;;;;7.28;6.68;;;;;;;2.29;73.88;95992.28;5119392;28;20527;-74
2023/01/25 07:33:22;;;;;;;6.82;6.22;;;;;;;2.33;72.58;95989.81;5120045;28;20192;-74
2023/01/25 07:35:50;;;;;;;7.15;6.55;;;;;;;2.31;73.07;95990.06;5119547;28;20199;-74
2023/01/25 07:38:17;;;;;;;7.03;6.28;;;;;;;2.35;73.00;95993.06;5118996;28;20196;-74
2023/01/25 07:40:43;;;;;;;6.38;5.78;;;;;;;2.38;72.23;96000.66;5119565;28;20196;-75
2023/01/25 07:43:10;;;;;;;5.03;4.63;;;;;;;2.38;72.19;96006.91;5118683;28;20226;-74
2023/01/25 07:45:37;;;;;;;5.30;4.90;;;;;;;2.34;72.48;95997.69;5118846;28;20204;-74
2023/01/25 07:48:10;;;;;;;6.90;6.30;;;;;;;2.35;72.73;96002.03;5118210;28;20195;-74
2023/01/25 07:50:38;;;;;;;6.53;6.00;;;;;;;2.36;72.71;96003.69;5118716;28;20244;-74
2023/01/25 07:53:05;;;;;;;6.35;5.85;;;;;;;2.35;72.91;95995.78;5118343;28;20282;-74
2023/01/25 07:55:31;;;;;;;5.40;5.00;;;;;;;2.39;72.78;96003.09;5118763;28;20191;-74
2023/01/25 07:57:59;;;;;;;5.10;4.70;;;;;;;2.39;72.49;95999.56;5118179;28;20232;-74
2023/01/25 08:00:26;;;;;;;4.90;4.50;;;;;;;2.41;72.47;95994.66;5117799;28;20526;-75
2023/01/25 08:02:53;;;;;;;4.43;4.13;;;;;;;2.44;72.14;95996.84;5118544;28;20227;-74
2023/01/25 08:05:21;;;;;;;4.15;3.85;;;;;;;2.41;72.00;95991.94;5118055;28;20271;-74
2023/01/25 08:07:48;;;;;;;4.07;3.78;;;;;;;2.40;72.35;95993.03;5116173;28;20207;-75
2023/01/25 08:10:15;;;;;;;5.35;4.60;;;;;;;2.40;72.05;96004.75;5117264;28;20210;-74
2023/01/25 08:12:45;;;;;;;4.70;4.30;;;;;;;2.23;72.34;95998.81;5117014;28;20203;-75
2023/01/25 08:15:11;;;;;;;5.00;4.60;;;;;;;2.25;72.00;95998.53;5117346;28;20195;-74
2023/01/25 08:17:38;;;;;;;7.22;6.63;;;;;;;2.28;72.54;96003.41;5117326;28;20188;-75
2023/01/25 08:20:07;;;;;;;7.22;6.60;;;;;;;2.09;72.75;95997.75;5117381;28;20184;-74
2023/01/25 08:22:35;;;;;;;15.00;11.95;;;;;;;2.07;72.60;95992.63;5117243;28;20230;-74
2023/01/25 08:25:02;;;;;;;10.68;9.00;;;;;;;2.17;72.80;95994.47;5116834;28;20204;-74
2023/01/25 08:27:29;;;;;;;9.32;8.30;;;;;;;2.23;73.33;95996.09;5117710;28;20200;-74
2023/01/25 08:29:55;;;;;;;8.60;7.70;;;;;;;2.24;72.93;95997.72;5117191;28;20278;-74
2023/01/25 08:32:22;;;;;;;7.90;7.30;;;;;;;2.28;73.23;95984.38;5116696;28;20545;-75
2023/01/25 08:34:49;;;;;;;9.13;8.30;;;;;;;2.32;73.30;95983.53;5116928;28;20641;-74
2023/01/25 08:37:16;;;;;;;9.00;8.30;;;;;;;2.29;73.21;95986.81;5117574;28;20208;-74
2023/01/25 08:39:44;;;;;;;8.20;7.43;;;;;;;2.31;72.53;95992.78;5117182;28;20203;-74
2023/01/25 08:42:11;;;;;;;8.30;7.50;;;;;;;2.32;73.06;95990.88;5116704;28;20555;-74
2023/01/25 08:44:37;;;;;;;9.55;8.55;;;;;;;2.31;73.23;95989.25;5117132;28;20538;-75
2023/01/25 08:47:04;;;;;;;7.80;7.00;;;;;;;2.29;72.77;95984.09;5117593;28;20196;-75
2023/01/25 08:49:33;;;;;;;8.15;7.00;;;;;;;2.35;73.04;95985.69;5117064;28;20203;-74
2023/01/25 08:52:00;;;;;;;8.10;7.40;;;;;;;2.42;73.02;95977.22;5117034;28;20294;-75
2023/01/25 08:54:27;;;;;;;7.20;6.60;;;;;;;2.42;72.92;95975.31;5116867;28;20203;-75
2023/01/25 08:56:55;;;;;;;8.02;7.35;;;;;;;2.44;72.57;95987.84;5117448;28;20531;-74
2023/01/25 08:59:22;;;;;;;8.27;7.57;;;;;;;2.41;72.68;95984.59;5116256;28;20228;-75
2023/01/25 09:01:49;;;;;;;7.80;7.00;;;;;;;2.42;73.22;95977.22;5116754;28;20199;-75
2023/01/25 09:04:15;;;;;;;9.80;7.78;;;;;;;2.42;73.13;95978.03;5116747;28;20234;-75
2023/01/25 09:06:42;;;;;;;8.40;7.55;;;;;;;2.48;72.76;95976.13;5116540;28;20204;-75
2023/01/25 09:09:09;;;;;;;7.10;6.50;;;;;;;2.37;73.00;95980.78;5117475;28;20210;-74
2023/01/25 09:11:36;;;;;;;7.88;7.18;;;;;;;2.43;73.24;95987.03;5116447;28;20203;-75
2023/01/25 09:14:05;;;;;;;7.72;7.13;;;;;;;2.39;72.88;95989.47;5117858;28;20191;-75
2023/01/25 09:16:50;;;;;;;8.25;7.47;;;;;;;2.38;72.78;95976.97;5117307;28;20191;-75
2023/01/25 09:19:36;;;;;;;7.82;7.03;;;;;;;2.45;72.61;95976.69;5117279;28;20256;-75
2023/01/25 09:22:21;;;;;;;7.93;7.32;;;;;;;2.38;72.92;95979.69;5117305;28;20194;-75
2023/01/25 09:25:07;;;;;;;7.60;7.00;;;;;;;2.42;73.43;95960.91;5117036;28;20191;-75
2023/01/25 09:27:53;;;;;;;7.20;6.60;;;;;;;2.49;73.33;95961.41;5117059;28;20272;-76
2023/01/25 09:30:41;;;;;;;6.90;6.40;;;;;;;2.49;73.28;95961.41;5117139;28;20186;-75
2023/01/25 09:33:26;;;;;;;7.03;6.53;;;;;;;2.34;73.66;95950.59;5117053;28;20244;-74
2023/01/25 09:36:12;;;;;;;7.10;6.50;;;;;;;2.39;73.72;95948.66;5116796;28;20187;-75
2023/01/25 09:38:58;;;;;;;8.10;7.50;;;;;;;2.39;74.17;95947.84;5116439;28;20187;-74
2023/01/25 09:42:13;;;;;;;7.72;7.13;;;;;;;2.37;74.40;95944.59;5116570;28;20183;-74
2023/01/25 09:45:12;;;;;;;7.63;7.03;;;;;;;2.38;74.36;95941.56;5111732;27;20219;-74
2023/01/25 09:48:08;;;;;;;8.35;7.55;;;;;;;2.39;74.20;95928.78;5116384;28;20184;-74
2023/01/25 09:51:10;;;;;;;9.02;7.97;;;;;;;2.48;74.59;95924.38;5116558;28;20597;-75
2023/01/25 09:53:57;;;;;;;7.55;6.95;;;;;;;2.46;74.38;95918.38;5116197;28;20301;-74
2023/01/25 09:56:43;;;;;;;6.60;6.10;;;;;;;2.45;74.67;95919.50;5116131;28;20637;-74
2023/01/25 09:59:30;;;;;;;6.75;6.25;;;;;;;2.42;74.51;95918.13;5116226;28;20353;-74
2023/01/25 10:02:25;;;;;;;5.60;5.10;;;;;;;2.49;74.15;95917.03;5116136;28;20197;-74
2023/01/25 10:05:14;;;;;;;6.55;6.05;;;;;;;2.52;73.98;95909.09;5115803;28;20184;-75
2023/01/25 10:08:04;;;;;;;5.78;5.25;;;;;;;2.45;73.76;95905.88;5115879;28;20183;-75
2023/01/25 10:10:51;;;;;;;6.00;5.60;;;;;;;2.34;74.79;95899.69;5115978;28;20333;-75
2023/01/25 10:13:36;;;;;;;6.20;5.60;;;;;;;2.41;73.98;95894.72;5116554;28;20186;-75
2023/01/25 10:16:24;;;;;;;7.47;6.60;;;;;;;2.50;74.29;95892.22;5116909;28;20183;-75
2023/01/25 10:19:16;;;;;;;7.93;5.97;;;;;;;2.55;74.16;95888.69;5116796;28;20183;-75
2023/01/25 10:22:06;;;;;;;6.00;5.47;;;;;;;2.65;73.61;95883.13;5116648;28;20187;-75
2023/01/25 10:25:02;;;;;;;5.40;4.90;;;;;;;2.61;73.42;95872.03;5116494;28;20345;-75
2023/01/25 10:27:57;;;;;;;5.97;5.47;;;;;;;2.70;73.36;95871.41;5116728;28;20187;-75
2023/01/25 10:30:49;;;;;;;8.30;6.30;;;;;;;2.76;73.24;95873.81;5117456;28;20191;-75
2023/01/25 10:33:38;;;;;;;8.98;6.45;;;;;;;2.83;73.45;95874.31;5117462;28;20271;-75
2023/01/25 10:36:28;;;;;;;7.38;6.68;;;;;;;2.83;72.76;95868.03;5116074;28;20187;-75
2023/01/25 10:39:15;;;;;;;6.20;5.53;;;;;;;2.88;73.01;95857.13;5116602;28;20182;-75
2023/01/25 10:42:03;;;;;;;7.97;7.28;;;;;;;2.74;71.55;95861.56;5116127;28;20190;-75
2023/01/25 10:44:48;;;;;;;8.40;7.65;;;;;;;2.66;71.65;95852.09;5116238;28;20214;-75
2023/01/25 10:47:35;;;;;;;6.68;6.18;;;;;;;2.67;71.92;95855.63;5117807;28;20706;-75
2023/01/25 10:50:42;;;;;;;7.50;6.90;;;;;;;2.81;72.24;95845.72;5117533;28;20268;-75
2023/01/25 10:53:31;;;;;;;6.10;5.60;;;;;;;2.76;71.64;95840.28;5116267;28;20179;-75
2023/01/25 10:56:23;;;;;;;7.50;6.57;;;;;;;2.87;72.05;95828.25;5116581;28;20726;-75
2023/01/25 10:59:16;;;;;;;6.53;6.00;;;;;;;2.95;71.96;95835.00;5116079;28;20302;-74
2023/01/25 11:02:35;;;;;;;5.68;5.13;;;;;;;3.04;70.93;95825.06;5116650;28;20272;-75
2023/01/25 11:05:33;;;;;;;5.30;4.90;;;;;;;3.19;70.87;95833.09;5116395;28;20191;-75
2023/01/25 11:08:24;;;;;;;5.05;4.65;;;;;;;3.18;70.10;95831.50;5116609;28;20206;-74
2023/01/25 11:11:24;;;;;;;5.40;4.90;;;;;;;3.27;70.79;95826.25;5115952;28;20713;-75
2023/01/25 11:14:16;;;;;;;6.28;5.68;;;;;;;3.25;70.20;95814.81;5116481;28;20183;-74
2023/01/25 11:17:04;;;;;;;6.43;5.93;;;;;;;3.34;70.34;95815.78;5116577;28;20210;-74
2023/01/25 11:19:49;;;;;;;6.30;5.60;;;;;;;3.27;69.30;95812.63;5116286;28;20183;-74
2023/01/25 11:22:35;;;;;;;5.90;5.40;;;;;;;3.09;70.31;95808.69;5116755;28;20202;-74
2023/01/25 11:25:31;;;;;;;5.28;4.88;;;;;;;3.05;69.94;95803.00;5116827;28;20186;-75
2023/01/25 11:28:22;;;;;;;6.07;5.57;;;;;;;3.09;69.62;95808.69;5117014;28;20183;-75
2023/01/25 11:31:12;;;;;;;5.40;4.90;;;;;;;3.14;69.54;95801.28;5116693;28;20508;-74
2023/01/25 11:33:57;;;;;;;6.38;5.57;;;;;;;3.10;69.74;95791.22;5116132;28;20195;-74
2023/01/25 11:36:52;;;;;;;5.20;4.80;;;;;;;3.23;69.99;95797.91;5116509;28;20191;-74
2023/01/25 11:39:46;;;;;;;6.93;6.22;;;;;;;3.33;69.38;95789.63;5116318;28;20245;-74
2023/01/25 11:42:39;;;;;;;5.57;5.07;;;;;;;3.28;68.93;95781.50;5119993;28;20195;-74
2023/01/25 11:45:49;;;;;;;5.75;5.30;;;;;;;3.18;68.61;95771.53;5120247;28;20191;-75
2023/01/25 11:48:50;;;;;;;6.20;5.60;;;;;;;3.26;68.79;95772.78;5120100;28;20233;-74
2023/01/25 11:51:41;;;;;;;5.30;4.90;;;;;;;3.31;68.85;95757.22;5119177;28;20190;-75
2023/01/25 11:54:48;;;;;;;5.30;4.90;;;;;;;3.20;68.18;95752.16;5119505;28;20615;-75
2023/01/25 11:57:52;;;;;;;5.53;4.47;;;;;;;3.19;68.35;95764.97;5119811;28;20207;-74
2023/01/25 12:00:48;;;;;;;5.35;4.88;;;;;;;3.01;68.57;95761.03;5119197;28;20183;-76
2023/01/25 12:04:00;;;;;;;5.20;4.80;;;;;;;3.01;68.78;95763.78;5119620;28;20207;-75
2023/01/25 12:06:54;;;;;;;7.03;6.38;;;;;;;3.11;69.26;95751.97;5119725;28;20187;-75